sensor_id;sensor_type;location;lat;lon;timestamp;temperature;humidity
77592;DHT22;66891;46.884;17.436;2023-07-20T00:01:09;19.16;87.21
77592;DHT22;66891;46.884;17.436;2023-07-20T00:03:39;19.19;87.13
77592;DHT22;66891;46.884;17.436;2023-07-20T00:06:06;19.22;87.04
77592;DHT22;66891;46.884;17.436;2023-07-20T00:08:34;19.30;87.25
77592;DHT22;66891;46.884;17.436;2023-07-20T00:11:02;19.35;86.85
77592;DHT22;66891;46.884;17.436;2023-07-20T00:13:30;19.26;87.07
77592;DHT22;66891;46.884;17.436;2023-07-20T00:15:57;19.33;87.81
77592;DHT22;66891;46.884;17.436;2023-07-20T00:18:26;19.33;88.07
77592;DHT22;66891;46.884;17.436;2023-07-20T00:24:57;19.10;87.76
77592;DHT22;66891;46.884;17.436;2023-07-20T00:27:26;19.12;87.98
77592;DHT22;66891;46.884;17.436;2023-07-20T00:29:54;19.26;87.50
77592;DHT22;66891;46.884;17.436;2023-07-20T00:32:22;19.44;87.07
77592;DHT22;66891;46.884;17.436;2023-07-20T00:34:50;19.54;87.04
77592;DHT22;66891;46.884;17.436;2023-07-20T00:37:19;19.50;86.84
77592;DHT22;66891;46.884;17.436;2023-07-20T00:39:47;19.37;87.31
77592;DHT22;66891;46.884;17.436;2023-07-20T00:42:14;19.40;87.27
77592;DHT22;66891;46.884;17.436;2023-07-20T00:44:42;19.37;87.14
77592;DHT22;66891;46.884;17.436;2023-07-20T00:47:10;19.27;87.99
77592;DHT22;66891;46.884;17.436;2023-07-20T00:49:38;19.14;88.27
77592;DHT22;66891;46.884;17.436;2023-07-20T00:52:07;19.19;88.10
77592;DHT22;66891;46.884;17.436;2023-07-20T00:54:37;19.26;87.77
77592;DHT22;66891;46.884;17.436;2023-07-20T00:57:07;19.34;87.46
77592;DHT22;66891;46.884;17.436;2023-07-20T00:59:35;19.28;87.78
77592;DHT22;66891;46.884;17.436;2023-07-20T01:02:05;19.22;87.74
77592;DHT22;66891;46.884;17.436;2023-07-20T01:04:35;19.23;87.68
77592;DHT22;66891;46.884;17.436;2023-07-20T01:07:17;19.09;87.68
77592;DHT22;66891;46.884;17.436;2023-07-20T01:09:55;18.98;88.06
77592;DHT22;66891;46.884;17.436;2023-07-20T01:12:32;19.12;87.86
77592;DHT22;66891;46.884;17.436;2023-07-20T01:15:00;19.03;88.50
77592;DHT22;66891;46.884;17.436;2023-07-20T01:17:29;19.02;88.36
77592;DHT22;66891;46.884;17.436;2023-07-20T01:19:57;19.05;88.25
77592;DHT22;66891;46.884;17.436;2023-07-20T01:22:48;19.10;88.31
77592;DHT22;66891;46.884;17.436;2023-07-20T01:25:34;19.16;88.47
77592;DHT22;66891;46.884;17.436;2023-07-20T01:28:24;19.10;88.62
77592;DHT22;66891;46.884;17.436;2023-07-20T01:31:15;19.24;88.61
77592;DHT22;66891;46.884;17.436;2023-07-20T01:33:55;19.30;88.02
77592;DHT22;66891;46.884;17.436;2023-07-20T01:36:24;19.65;86.74
77592;DHT22;66891;46.884;17.436;2023-07-20T01:38:56;19.60;86.79
77592;DHT22;66891;46.884;17.436;2023-07-20T01:41:24;19.70;86.08
77592;DHT22;66891;46.884;17.436;2023-07-20T01:43:52;19.49;86.71
77592;DHT22;66891;46.884;17.436;2023-07-20T01:46:21;19.47;87.05
77592;DHT22;66891;46.884;17.436;2023-07-20T01:48:49;19.33;87.62
77592;DHT22;66891;46.884;17.436;2023-07-20T01:51:18;19.26;88.21
77592;DHT22;66891;46.884;17.436;2023-07-20T01:53:46;19.31;87.98
77592;DHT22;66891;46.884;17.436;2023-07-20T01:56:14;19.31;87.51
77592;DHT22;66891;46.884;17.436;2023-07-20T01:58:42;19.26;87.83
77592;DHT22;66891;46.884;17.436;2023-07-20T02:01:10;19.19;88.22
77592;DHT22;66891;46.884;17.436;2023-07-20T02:03:39;19.13;88.31
77592;DHT22;66891;46.884;17.436;2023-07-20T02:06:07;19.13;88.54
77592;DHT22;66891;46.884;17.436;2023-07-20T02:08:35;19.26;88.22
77592;DHT22;66891;46.884;17.436;2023-07-20T02:11:03;19.41;88.09
77592;DHT22;66891;46.884;17.436;2023-07-20T02:13:31;19.53;87.67
77592;DHT22;66891;46.884;17.436;2023-07-20T02:15:59;19.53;87.19
77592;DHT22;66891;46.884;17.436;2023-07-20T02:18:27;19.41;87.79
77592;DHT22;66891;46.884;17.436;2023-07-20T02:20:56;19.24;88.39
77592;DHT22;66891;46.884;17.436;2023-07-20T02:23:25;19.16;89.02
77592;DHT22;66891;46.884;17.436;2023-07-20T02:25:53;19.10;89.28
77592;DHT22;66891;46.884;17.436;2023-07-20T02:28:26;19.10;89.16
77592;DHT22;66891;46.884;17.436;2023-07-20T02:30:58;19.13;89.19
77592;DHT22;66891;46.884;17.436;2023-07-20T02:33:26;19.12;88.95
77592;DHT22;66891;46.884;17.436;2023-07-20T02:35:58;19.27;88.98
77592;DHT22;66891;46.884;17.436;2023-07-20T02:38:26;19.17;88.91
77592;DHT22;66891;46.884;17.436;2023-07-20T02:40:54;19.07;89.34
77592;DHT22;66891;46.884;17.436;2023-07-20T02:43:22;19.09;89.24
77592;DHT22;66891;46.884;17.436;2023-07-20T02:45:50;19.10;89.30
77592;DHT22;66891;46.884;17.436;2023-07-20T02:48:19;19.10;89.04
77592;DHT22;66891;46.884;17.436;2023-07-20T02:50:46;19.10;89.27
77592;DHT22;66891;46.884;17.436;2023-07-20T02:53:18;19.03;89.35
77592;DHT22;66891;46.884;17.436;2023-07-20T02:55:50;19.07;89.35
77592;DHT22;66891;46.884;17.436;2023-07-20T02:58:18;19.07;89.60
77592;DHT22;66891;46.884;17.436;2023-07-20T03:00:46;19.34;89.21
77592;DHT22;66891;46.884;17.436;2023-07-20T03:03:14;19.31;89.31
77592;DHT22;66891;46.884;17.436;2023-07-20T03:05:43;19.37;89.55
77592;DHT22;66891;46.884;17.436;2023-07-20T03:08:19;19.40;89.63
77592;DHT22;66891;46.884;17.436;2023-07-20T03:10:48;19.46;90.04
77592;DHT22;66891;46.884;17.436;2023-07-20T03:13:21;19.49;89.89
77592;DHT22;66891;46.884;17.436;2023-07-20T03:15:59;19.47;90.02
77592;DHT22;66891;46.884;17.436;2023-07-20T03:18:36;19.54;90.17
77592;DHT22;66891;46.884;17.436;2023-07-20T03:21:05;19.50;90.18
77592;DHT22;66891;46.884;17.436;2023-07-20T03:23:42;19.51;90.75
77592;DHT22;66891;46.884;17.436;2023-07-20T03:26:11;19.54;90.53
77592;DHT22;66891;46.884;17.436;2023-07-20T03:32:06;19.55;90.76
77592;DHT22;66891;46.884;17.436;2023-07-20T03:39:45;19.75;90.03
77592;DHT22;66891;46.884;17.436;2023-07-20T03:42:48;19.82;89.95
77592;DHT22;66891;46.884;17.436;2023-07-20T03:45:50;19.85;89.68
77592;DHT22;66891;46.884;17.436;2023-07-20T03:48:33;19.85;88.78
77592;DHT22;66891;46.884;17.436;2023-07-20T03:51:04;19.75;88.87
77592;DHT22;66891;46.884;17.436;2023-07-20T03:53:34;19.89;88.78
77592;DHT22;66891;46.884;17.436;2023-07-20T03:56:04;19.79;89.03
77592;DHT22;66891;46.884;17.436;2023-07-20T03:58:39;19.77;89.11
77592;DHT22;66891;46.884;17.436;2023-07-20T04:50:45;19.99;89.67
77592;DHT22;66891;46.884;17.436;2023-07-20T05:07:40;20.16;88.90
77592;DHT22;66891;46.884;17.436;2023-07-20T05:16:44;20.27;88.77
77592;DHT22;66891;46.884;17.436;2023-07-20T05:19:39;20.27;88.95
77592;DHT22;66891;46.884;17.436;2023-07-20T05:22:28;20.36;88.57
77592;DHT22;66891;46.884;17.436;2023-07-20T05:25:58;20.36;88.97
77592;DHT22;66891;46.884;17.436;2023-07-20T05:28:49;20.39;89.26
77592;DHT22;66891;46.884;17.436;2023-07-20T05:31:24;20.50;89.03
77592;DHT22;66891;46.884;17.436;2023-07-20T05:33:56;20.43;89.20
77592;DHT22;66891;46.884;17.436;2023-07-20T05:36:30;20.54;89.19
77592;DHT22;66891;46.884;17.436;2023-07-20T05:38:59;20.60;89.25
77592;DHT22;66891;46.884;17.436;2023-07-20T05:41:32;20.73;88.07
77592;DHT22;66891;46.884;17.436;2023-07-20T05:44:00;20.95;87.42
77592;DHT22;66891;46.884;17.436;2023-07-20T05:46:28;20.92;88.01
77592;DHT22;66891;46.884;17.436;2023-07-20T05:49:13;21.15;86.53
77592;DHT22;66891;46.884;17.436;2023-07-20T05:51:48;21.28;86.48
77592;DHT22;66891;46.884;17.436;2023-07-20T05:54:16;21.42;85.76
77592;DHT22;66891;46.884;17.436;2023-07-20T05:56:45;21.56;85.15
77592;DHT22;66891;46.884;17.436;2023-07-20T05:59:13;21.74;84.26
77592;DHT22;66891;46.884;17.436;2023-07-20T06:01:41;21.88;83.05
77592;DHT22;66891;46.884;17.436;2023-07-20T06:04:08;22.08;82.85
77592;DHT22;66891;46.884;17.436;2023-07-20T06:06:36;22.12;83.76
77592;DHT22;66891;46.884;17.436;2023-07-20T06:09:03;22.15;83.77
77592;DHT22;66891;46.884;17.436;2023-07-20T06:11:32;22.28;82.05
77592;DHT22;66891;46.884;17.436;2023-07-20T06:14:01;22.26;83.40
77592;DHT22;66891;46.884;17.436;2023-07-20T06:16:30;22.45;82.37
77592;DHT22;66891;46.884;17.436;2023-07-20T06:18:59;22.62;82.08
77592;DHT22;66891;46.884;17.436;2023-07-20T06:21:40;22.62;82.58
77592;DHT22;66891;46.884;17.436;2023-07-20T06:24:09;22.69;82.26
77592;DHT22;66891;46.884;17.436;2023-07-20T06:26:37;22.90;80.53
77592;DHT22;66891;46.884;17.436;2023-07-20T06:29:08;22.90;80.72
77592;DHT22;66891;46.884;17.436;2023-07-20T06:31:38;23.15;73.54
77592;DHT22;66891;46.884;17.436;2023-07-20T06:34:06;23.39;70.57
77592;DHT22;66891;46.884;17.436;2023-07-20T06:36:34;23.58;70.01
77592;DHT22;66891;46.884;17.436;2023-07-20T06:39:02;23.59;71.09
77592;DHT22;66891;46.884;17.436;2023-07-20T06:41:32;23.68;70.40
77592;DHT22;66891;46.884;17.436;2023-07-20T06:44:05;23.85;69.27
77592;DHT22;66891;46.884;17.436;2023-07-20T06:50:06;24.07;69.14
77592;DHT22;66891;46.884;17.436;2023-07-20T06:52:34;24.28;69.21
77592;DHT22;66891;46.884;17.436;2023-07-20T06:55:03;24.27;68.28
77592;DHT22;66891;46.884;17.436;2023-07-20T06:57:34;24.35;68.82
77592;DHT22;66891;46.884;17.436;2023-07-20T07:00:06;24.47;68.84
77592;DHT22;66891;46.884;17.436;2023-07-20T07:02:34;24.65;68.04
77592;DHT22;66891;46.884;17.436;2023-07-20T07:05:07;24.69;66.02
77592;DHT22;66891;46.884;17.436;2023-07-20T07:07:39;24.68;67.05
77592;DHT22;66891;46.884;17.436;2023-07-20T07:10:08;24.92;65.32
77592;DHT22;66891;46.884;17.436;2023-07-20T07:12:36;25.03;65.25
77592;DHT22;66891;46.884;17.436;2023-07-20T07:15:22;25.08;63.70
77592;DHT22;66891;46.884;17.436;2023-07-20T07:17:50;25.10;65.11
77592;DHT22;66891;46.884;17.436;2023-07-20T07:20:21;25.02;65.81
77592;DHT22;66891;46.884;17.436;2023-07-20T07:23:04;24.88;63.67
77592;DHT22;66891;46.884;17.436;2023-07-20T07:25:36;24.88;64.19
77592;DHT22;66891;46.884;17.436;2023-07-20T07:28:06;25.05;64.04
77592;DHT22;66891;46.884;17.436;2023-07-20T07:30:33;25.41;63.81
77592;DHT22;66891;46.884;17.436;2023-07-20T07:33:01;25.67;63.90
77592;DHT22;66891;46.884;17.436;2023-07-20T07:35:32;25.67;62.78
77592;DHT22;66891;46.884;17.436;2023-07-20T07:38:00;25.53;62.60
77592;DHT22;66891;46.884;17.436;2023-07-20T07:40:49;25.46;64.63
77592;DHT22;66891;46.884;17.436;2023-07-20T07:43:19;25.31;63.97
77592;DHT22;66891;46.884;17.436;2023-07-20T07:45:47;25.29;64.59
77592;DHT22;66891;46.884;17.436;2023-07-20T07:48:14;25.30;65.25
77592;DHT22;66891;46.884;17.436;2023-07-20T07:50:44;25.40;65.30
77592;DHT22;66891;46.884;17.436;2023-07-20T07:53:12;25.47;64.62
77592;DHT22;66891;46.884;17.436;2023-07-20T07:55:40;25.48;64.23
77592;DHT22;66891;46.884;17.436;2023-07-20T07:58:09;25.64;65.20
77592;DHT22;66891;46.884;17.436;2023-07-20T08:01:04;25.80;64.93
77592;DHT22;66891;46.884;17.436;2023-07-20T08:03:34;25.82;64.38
77592;DHT22;66891;46.884;17.436;2023-07-20T08:06:06;25.85;63.46
77592;DHT22;66891;46.884;17.436;2023-07-20T08:08:34;25.78;62.68
77592;DHT22;66891;46.884;17.436;2023-07-20T08:11:04;25.80;62.36
77592;DHT22;66891;46.884;17.436;2023-07-20T08:13:34;25.86;62.72
77592;DHT22;66891;46.884;17.436;2023-07-20T08:16:02;26.05;62.76
77592;DHT22;66891;46.884;17.436;2023-07-20T08:18:32;26.03;61.52
77592;DHT22;66891;46.884;17.436;2023-07-20T08:21:00;26.06;61.53
77592;DHT22;66891;46.884;17.436;2023-07-20T08:23:29;26.21;61.79
77592;DHT22;66891;46.884;17.436;2023-07-20T08:25:56;26.21;61.79
77592;DHT22;66891;46.884;17.436;2023-07-20T08:28:26;26.51;61.49
77592;DHT22;66891;46.884;17.436;2023-07-20T08:30:55;26.63;60.29
77592;DHT22;66891;46.884;17.436;2023-07-20T08:33:25;26.61;61.32
77592;DHT22;66891;46.884;17.436;2023-07-20T08:35:57;26.61;59.40
77592;DHT22;66891;46.884;17.436;2023-07-20T08:38:25;26.70;58.13
77592;DHT22;66891;46.884;17.436;2023-07-20T08:40:53;26.64;57.10
77592;DHT22;66891;46.884;17.436;2023-07-20T08:43:25;26.65;56.82
77592;DHT22;66891;46.884;17.436;2023-07-20T08:45:54;26.68;56.10
77592;DHT22;66891;46.884;17.436;2023-07-20T08:48:27;26.80;55.87
77592;DHT22;66891;46.884;17.436;2023-07-20T08:50:56;26.77;55.47
77592;DHT22;66891;46.884;17.436;2023-07-20T08:53:31;26.87;55.32
77592;DHT22;66891;46.884;17.436;2023-07-20T08:56:03;26.90;54.59
77592;DHT22;66891;46.884;17.436;2023-07-20T08:58:31;26.78;53.93
77592;DHT22;66891;46.884;17.436;2023-07-20T09:01:00;26.88;54.27
77592;DHT22;66891;46.884;17.436;2023-07-20T09:03:31;27.02;55.46
77592;DHT22;66891;46.884;17.436;2023-07-20T09:06:00;27.05;55.04
77592;DHT22;66891;46.884;17.436;2023-07-20T09:08:27;27.01;54.80
77592;DHT22;66891;46.884;17.436;2023-07-20T09:10:56;27.12;55.17
77592;DHT22;66891;46.884;17.436;2023-07-20T09:13:29;27.18;56.46
77592;DHT22;66891;46.884;17.436;2023-07-20T09:15:58;27.15;56.04
77592;DHT22;66891;46.884;17.436;2023-07-20T09:18:27;27.29;56.35
77592;DHT22;66891;46.884;17.436;2023-07-20T09:20:58;27.19;55.52
77592;DHT22;66891;46.884;17.436;2023-07-20T09:23:34;27.41;55.74
77592;DHT22;66891;46.884;17.436;2023-07-20T09:26:09;27.34;56.06
77592;DHT22;66891;46.884;17.436;2023-07-20T09:28:47;27.41;54.93
77592;DHT22;66891;46.884;17.436;2023-07-20T09:31:16;27.24;54.77
77592;DHT22;66891;46.884;17.436;2023-07-20T09:33:46;27.41;54.71
77592;DHT22;66891;46.884;17.436;2023-07-20T09:36:16;27.38;54.68
77592;DHT22;66891;46.884;17.436;2023-07-20T09:39:04;27.32;55.14
77592;DHT22;66891;46.884;17.436;2023-07-20T09:41:41;27.53;55.02
77592;DHT22;66891;46.884;17.436;2023-07-20T09:44:15;27.63;54.87
77592;DHT22;66891;46.884;17.436;2023-07-20T09:46:49;27.59;53.38
77592;DHT22;66891;46.884;17.436;2023-07-20T09:49:21;27.63;53.02
77592;DHT22;66891;46.884;17.436;2023-07-20T09:51:55;27.83;55.28
77592;DHT22;66891;46.884;17.436;2023-07-20T09:54:26;27.86;53.34
77592;DHT22;66891;46.884;17.436;2023-07-20T09:56:54;27.71;54.99
77592;DHT22;66891;46.884;17.436;2023-07-20T09:59:25;27.76;55.34
77592;DHT22;66891;46.884;17.436;2023-07-20T10:01:57;27.81;53.97
77592;DHT22;66891;46.884;17.436;2023-07-20T10:04:29;28.11;53.22
77592;DHT22;66891;46.884;17.436;2023-07-20T10:06:59;28.20;51.77
77592;DHT22;66891;46.884;17.436;2023-07-20T10:09:38;28.48;53.23
77592;DHT22;66891;46.884;17.436;2023-07-20T10:12:08;28.83;52.28
77592;DHT22;66891;46.884;17.436;2023-07-20T10:14:53;28.66;49.30
77592;DHT22;66891;46.884;17.436;2023-07-20T10:17:25;29.04;49.34
77592;DHT22;66891;46.884;17.436;2023-07-20T10:19:55;28.51;51.25
77592;DHT22;66891;46.884;17.436;2023-07-20T10:22:27;28.97;51.40
77592;DHT22;66891;46.884;17.436;2023-07-20T10:24:58;28.97;51.89
77592;DHT22;66891;46.884;17.436;2023-07-20T10:27:31;28.80;52.68
77592;DHT22;66891;46.884;17.436;2023-07-20T10:30:05;28.59;50.84
77592;DHT22;66891;46.884;17.436;2023-07-20T10:32:40;28.96;51.21
77592;DHT22;66891;46.884;17.436;2023-07-20T10:35:13;29.08;51.75
77592;DHT22;66891;46.884;17.436;2023-07-20T10:37:54;29.34;51.54
77592;DHT22;66891;46.884;17.436;2023-07-20T10:40:42;28.96;45.66
77592;DHT22;66891;46.884;17.436;2023-07-20T10:43:19;28.79;45.15
77592;DHT22;66891;46.884;17.436;2023-07-20T10:45:52;28.89;44.52
77592;DHT22;66891;46.884;17.436;2023-07-20T10:48:20;28.86;47.01
77592;DHT22;66891;46.884;17.436;2023-07-20T10:51:13;28.89;47.63
77592;DHT22;66891;46.884;17.436;2023-07-20T10:53:43;28.99;48.75
77592;DHT22;66891;46.884;17.436;2023-07-20T10:56:12;29.51;48.95
77592;DHT22;66891;46.884;17.436;2023-07-20T10:58:43;29.20;48.68
77592;DHT22;66891;46.884;17.436;2023-07-20T11:01:16;29.08;49.16
77592;DHT22;66891;46.884;17.436;2023-07-20T11:03:50;28.79;47.74
77592;DHT22;66891;46.884;17.436;2023-07-20T11:06:31;29.08;48.32
77592;DHT22;66891;46.884;17.436;2023-07-20T11:09:07;29.15;46.94
77592;DHT22;66891;46.884;17.436;2023-07-20T11:11:39;28.70;48.57
77592;DHT22;66891;46.884;17.436;2023-07-20T11:14:08;29.03;48.48
77592;DHT22;66891;46.884;17.436;2023-07-20T11:16:38;29.17;48.25
77592;DHT22;66891;46.884;17.436;2023-07-20T11:19:26;30.27;48.23
77592;DHT22;66891;46.884;17.436;2023-07-20T11:22:01;31.08;41.25
77592;DHT22;66891;46.884;17.436;2023-07-20T11:24:31;30.40;41.39
77592;DHT22;66891;46.884;17.436;2023-07-20T11:27:00;31.27;41.27
77592;DHT22;66891;46.884;17.436;2023-07-20T11:29:30;31.23;41.05
77592;DHT22;66891;46.884;17.436;2023-07-20T11:32:02;31.66;42.95
77592;DHT22;66891;46.884;17.436;2023-07-20T11:34:33;30.98;42.69
77592;DHT22;66891;46.884;17.436;2023-07-20T11:37:02;30.99;43.78
77592;DHT22;66891;46.884;17.436;2023-07-20T11:39:36;31.44;43.86
77592;DHT22;66891;46.884;17.436;2023-07-20T11:42:05;31.64;43.74
77592;DHT22;66891;46.884;17.436;2023-07-20T11:44:34;31.13;42.03
77592;DHT22;66891;46.884;17.436;2023-07-20T11:47:07;31.30;43.31
77592;DHT22;66891;46.884;17.436;2023-07-20T11:49:39;31.60;41.02
77592;DHT22;66891;46.884;17.436;2023-07-20T11:52:11;32.32;41.25
77592;DHT22;66891;46.884;17.436;2023-07-20T11:54:41;31.99;40.63
77592;DHT22;66891;46.884;17.436;2023-07-20T11:57:18;33.08;40.30
77592;DHT22;66891;46.884;17.436;2023-07-20T11:59:53;33.15;39.95
77592;DHT22;66891;46.884;17.436;2023-07-20T12:02:28;32.62;41.27
77592;DHT22;66891;46.884;17.436;2023-07-20T12:04:56;34.13;38.65
77592;DHT22;66891;46.884;17.436;2023-07-20T12:07:27;33.61;40.05
77592;DHT22;66891;46.884;17.436;2023-07-20T12:10:06;33.14;39.84
77592;DHT22;66891;46.884;17.436;2023-07-20T12:12:34;32.40;38.19
77592;DHT22;66891;46.884;17.436;2023-07-20T12:15:22;32.45;39.34
77592;DHT22;66891;46.884;17.436;2023-07-20T12:18:17;33.88;37.86
77592;DHT22;66891;46.884;17.436;2023-07-20T12:20:45;33.39;38.51
77592;DHT22;66891;46.884;17.436;2023-07-20T12:23:13;32.86;39.05
77592;DHT22;66891;46.884;17.436;2023-07-20T12:25:42;33.75;39.49
77592;DHT22;66891;46.884;17.436;2023-07-20T12:28:11;33.39;38.11
77592;DHT22;66891;46.884;17.436;2023-07-20T12:30:39;34.57;39.04
77592;DHT22;66891;46.884;17.436;2023-07-20T12:33:08;33.19;39.13
77592;DHT22;66891;46.884;17.436;2023-07-20T12:35:37;32.91;40.87
77592;DHT22;66891;46.884;17.436;2023-07-20T12:38:04;32.90;39.74
77592;DHT22;66891;46.884;17.436;2023-07-20T12:40:34;33.34;40.27
77592;DHT22;66891;46.884;17.436;2023-07-20T12:43:01;34.41;39.19
77592;DHT22;66891;46.884;17.436;2023-07-20T12:45:29;34.48;39.57
77592;DHT22;66891;46.884;17.436;2023-07-20T12:47:56;34.77;39.10
77592;DHT22;66891;46.884;17.436;2023-07-20T12:50:24;34.58;38.14
77592;DHT22;66891;46.884;17.436;2023-07-20T12:52:53;35.10;38.55
77592;DHT22;66891;46.884;17.436;2023-07-20T12:55:20;33.92;39.71
77592;DHT22;66891;46.884;17.436;2023-07-20T12:57:48;33.52;40.26
77592;DHT22;66891;46.884;17.436;2023-07-20T13:00:16;32.73;40.46
77592;DHT22;66891;46.884;17.436;2023-07-20T13:02:44;32.28;41.70
77592;DHT22;66891;46.884;17.436;2023-07-20T13:05:13;32.05;41.54
77592;DHT22;66891;46.884;17.436;2023-07-20T13:07:41;31.61;42.26
77592;DHT22;66891;46.884;17.436;2023-07-20T13:10:34;31.08;43.44
77592;DHT22;66891;46.884;17.436;2023-07-20T13:13:07;30.85;43.97
77592;DHT22;66891;46.884;17.436;2023-07-20T13:15:41;30.82;44.07
77592;DHT22;66891;46.884;17.436;2023-07-20T13:18:09;30.10;43.81
77592;DHT22;66891;46.884;17.436;2023-07-20T13:20:40;30.40;45.27
77592;DHT22;66891;46.884;17.436;2023-07-20T13:23:08;30.30;45.71
77592;DHT22;66891;46.884;17.436;2023-07-20T13:25:37;30.12;44.31
77592;DHT22;66891;46.884;17.436;2023-07-20T13:28:05;29.93;45.25
77592;DHT22;66891;46.884;17.436;2023-07-20T13:30:33;29.31;45.87
77592;DHT22;66891;46.884;17.436;2023-07-20T13:33:00;29.34;46.08
77592;DHT22;66891;46.884;17.436;2023-07-20T13:35:36;29.41;46.31
77592;DHT22;66891;46.884;17.436;2023-07-20T13:38:06;29.68;46.10
77592;DHT22;66891;46.884;17.436;2023-07-20T13:40:33;29.58;45.26
77592;DHT22;66891;46.884;17.436;2023-07-20T13:43:18;29.31;45.52
77592;DHT22;66891;46.884;17.436;2023-07-20T13:45:46;29.31;45.10
77592;DHT22;66891;46.884;17.436;2023-07-20T13:48:14;29.25;45.63
77592;DHT22;66891;46.884;17.436;2023-07-20T13:50:44;29.61;44.57
77592;DHT22;66891;46.884;17.436;2023-07-20T13:53:28;30.31;45.33
77592;DHT22;66891;46.884;17.436;2023-07-20T13:55:58;30.41;46.15
77592;DHT22;66891;46.884;17.436;2023-07-20T13:58:30;30.13;43.41
77592;DHT22;66891;46.884;17.436;2023-07-20T14:00:59;29.89;44.52
77592;DHT22;66891;46.884;17.436;2023-07-20T14:03:28;30.13;43.60
77592;DHT22;66891;46.884;17.436;2023-07-20T14:05:56;30.07;44.37
77592;DHT22;66891;46.884;17.436;2023-07-20T14:08:26;29.93;42.80
77592;DHT22;66891;46.884;17.436;2023-07-20T14:10:55;30.14;43.86
77592;DHT22;66891;46.884;17.436;2023-07-20T14:13:25;30.43;44.49
77592;DHT22;66891;46.884;17.436;2023-07-20T14:16:17;29.85;42.55
77592;DHT22;66891;46.884;17.436;2023-07-20T14:18:46;29.85;43.84
77592;DHT22;66891;46.884;17.436;2023-07-20T14:21:17;29.81;43.58
77592;DHT22;66891;46.884;17.436;2023-07-20T14:23:45;29.78;43.71
77592;DHT22;66891;46.884;17.436;2023-07-20T14:26:14;29.88;44.40
77592;DHT22;66891;46.884;17.436;2023-07-20T14:28:44;29.90;43.24
77592;DHT22;66891;46.884;17.436;2023-07-20T14:31:12;29.89;43.97
77592;DHT22;66891;46.884;17.436;2023-07-20T14:33:41;29.59;43.57
77592;DHT22;66891;46.884;17.436;2023-07-20T14:36:10;29.35;44.15
77592;DHT22;66891;46.884;17.436;2023-07-20T14:38:39;29.24;44.56
77592;DHT22;66891;46.884;17.436;2023-07-20T14:41:11;29.10;44.67
77592;DHT22;66891;46.884;17.436;2023-07-20T14:43:39;28.94;45.20
77592;DHT22;66891;46.884;17.436;2023-07-20T14:46:06;28.73;45.74
77592;DHT22;66891;46.884;17.436;2023-07-20T14:48:34;28.77;46.15
77592;DHT22;66891;46.884;17.436;2023-07-20T14:51:04;28.79;45.50
77592;DHT22;66891;46.884;17.436;2023-07-20T14:53:32;28.60;45.85
77592;DHT22;66891;46.884;17.436;2023-07-20T14:56:04;28.38;45.77
77592;DHT22;66891;46.884;17.436;2023-07-20T14:58:31;28.38;47.31
77592;DHT22;66891;46.884;17.436;2023-07-20T15:01:02;28.25;47.73
77592;DHT22;66891;46.884;17.436;2023-07-20T15:03:31;28.17;48.47
77592;DHT22;66891;46.884;17.436;2023-07-20T15:05:59;28.08;48.45
77592;DHT22;66891;46.884;17.436;2023-07-20T15:08:28;27.93;48.35
77592;DHT22;66891;46.884;17.436;2023-07-20T15:10:56;27.93;49.71
77592;DHT22;66891;46.884;17.436;2023-07-20T15:13:23;27.86;49.46
77592;DHT22;66891;46.884;17.436;2023-07-20T15:15:51;27.86;50.33
77592;DHT22;66891;46.884;17.436;2023-07-20T15:18:19;27.52;51.63
77592;DHT22;66891;46.884;17.436;2023-07-20T15:21:04;27.31;54.21
77592;DHT22;66891;46.884;17.436;2023-07-20T15:23:33;27.16;53.97
77592;DHT22;66891;46.884;17.436;2023-07-20T15:26:01;27.22;54.88
77592;DHT22;66891;46.884;17.436;2023-07-20T15:28:28;27.09;53.77
77592;DHT22;66891;46.884;17.436;2023-07-20T15:30:59;26.87;54.20
77592;DHT22;66891;46.884;17.436;2023-07-20T15:33:28;26.74;54.01
77592;DHT22;66891;46.884;17.436;2023-07-20T15:35:56;26.81;53.45
77592;DHT22;66891;46.884;17.436;2023-07-20T15:38:27;26.80;53.64
77592;DHT22;66891;46.884;17.436;2023-07-20T15:41:01;26.99;53.96
77592;DHT22;66891;46.884;17.436;2023-07-20T15:46:54;27.16;53.24
77592;DHT22;66891;46.884;17.436;2023-07-20T15:49:24;27.12;53.62
77592;DHT22;66891;46.884;17.436;2023-07-20T15:52:14;27.26;52.90
77592;DHT22;66891;46.884;17.436;2023-07-20T15:54:48;27.01;53.43
77592;DHT22;66891;46.884;17.436;2023-07-20T15:57:19;27.18;54.75
77592;DHT22;66891;46.884;17.436;2023-07-20T15:59:46;27.31;53.48
77592;DHT22;66891;46.884;17.436;2023-07-20T16:02:14;27.21;53.84
77592;DHT22;66891;46.884;17.436;2023-07-20T16:04:43;27.12;53.02
77592;DHT22;66891;46.884;17.436;2023-07-20T16:07:22;26.99;52.72
77592;DHT22;66891;46.884;17.436;2023-07-20T16:09:50;26.95;53.16
77592;DHT22;66891;46.884;17.436;2023-07-20T16:12:37;27.35;53.41
77592;DHT22;66891;46.884;17.436;2023-07-20T16:15:10;27.56;53.38
77592;DHT22;66891;46.884;17.436;2023-07-20T16:17:37;27.50;52.72
77592;DHT22;66891;46.884;17.436;2023-07-20T16:20:06;27.60;51.84
77592;DHT22;66891;46.884;17.436;2023-07-20T16:22:37;27.46;52.83
77592;DHT22;66891;46.884;17.436;2023-07-20T16:25:06;27.50;52.66
77592;DHT22;66891;46.884;17.436;2023-07-20T16:31:38;27.25;53.31
77592;DHT22;66891;46.884;17.436;2023-07-20T16:34:26;27.19;53.43
77592;DHT22;66891;46.884;17.436;2023-07-20T16:36:53;27.24;54.10
77592;DHT22;66891;46.884;17.436;2023-07-20T16:39:23;27.24;53.98
77592;DHT22;66891;46.884;17.436;2023-07-20T16:41:54;27.11;54.49
77592;DHT22;66891;46.884;17.436;2023-07-20T16:44:24;27.01;54.47
77592;DHT22;66891;46.884;17.436;2023-07-20T16:46:54;26.91;55.34
77592;DHT22;66891;46.884;17.436;2023-07-20T16:49:28;26.88;55.63
77592;DHT22;66891;46.884;17.436;2023-07-20T16:51:57;26.73;54.90
77592;DHT22;66891;46.884;17.436;2023-07-20T16:54:25;26.59;55.38
77592;DHT22;66891;46.884;17.436;2023-07-20T16:56:53;26.61;55.57
77592;DHT22;66891;46.884;17.436;2023-07-20T16:59:22;26.37;55.45
77592;DHT22;66891;46.884;17.436;2023-07-20T17:05:15;26.26;57.48
77592;DHT22;66891;46.884;17.436;2023-07-20T17:07:45;26.15;57.43
77592;DHT22;66891;46.884;17.436;2023-07-20T17:10:16;26.02;57.72
77592;DHT22;66891;46.884;17.436;2023-07-20T17:12:45;26.03;57.73
77592;DHT22;66891;46.884;17.436;2023-07-20T17:15:20;25.91;57.78
77592;DHT22;66891;46.884;17.436;2023-07-20T17:17:49;25.78;58.14
77592;DHT22;66891;46.884;17.436;2023-07-20T17:20:21;25.78;58.80